Time;durP1;ratioP1;P1;durP2;ratioP2;P2;SDS_P1;SDS_P2;PMS_P1;PMS_P2;Temp;Humidity;BMP_temperature;BMP_pressure;BME280_temperature;BME280_humidity;BME280_pressure;Samples;Min_cycle;Max_cycle;Signal;HPM_P1;HPM_P2
2021/08/20 00:01:50;;;;;;;;;;;;;;;23.87;40.20;99526.16;5072498;28;20010;-75
2021/08/20 00:04:16;;;;;;;;;;;;;;;23.80;40.49;99525.28;5072680;28;19920;-75
2021/08/20 00:06:42;;;;;;;;;;;;;;;23.74;40.13;99523.41;5072400;28;19931;-74
2021/08/20 00:09:09;;;;;;;;;;;;;;;23.75;40.55;99525.06;5055691;28;19970;-75
2021/08/20 00:11:36;;;;;;;;;;;;;;;23.77;40.58;99528.44;5089518;28;19969;-74
2021/08/20 00:14:01;;;;;;;;;;;;;;;23.78;40.68;99526.56;5039545;28;19947;-75
2021/08/20 00:16:27;;;;;;;;;;;;;;;23.77;40.45;99536.63;5072141;28;20379;-75
2021/08/20 00:18:53;;;;;;;;;;;;;;;23.77;40.92;99530.31;5039108;28;19927;-76
2021/08/20 00:21:19;;;;;;;;;;;;;;;23.74;40.84;99537.88;5055348;28;20401;-75
2021/08/20 00:23:45;;;;;;;;;;;;;;;23.76;40.69;99529.47;5072145;28;19920;-75
2021/08/20 00:26:11;;;;;;;;;;;;;;;23.73;40.69;99530.75;5088965;28;19942;-75
2021/08/20 00:28:36;;;;;;;;;;;;;;;23.70;40.70;99538.50;5072204;28;19920;-73
2021/08/20 00:31:03;;;;;;;;;;;;;;;23.71;40.82;99537.44;5072188;28;20016;-75
2021/08/20 00:33:29;;;;;;;;;;;;;;;23.71;40.89;99532.81;5038785;28;19927;-75
2021/08/20 00:35:55;;;;;;;;;;;;;;;23.73;40.85;99540.78;5037719;28;20306;-76
2021/08/20 00:38:21;;;;;;;;;;;;;;;23.72;40.89;99539.13;5038850;28;19920;-75
2021/08/20 00:40:47;;;;;;;;;;;;;;;23.75;40.80;99538.72;5073454;28;20022;-75
2021/08/20 00:43:14;;;;;;;;;;;;;;;23.75;40.77;99538.72;5072440;28;19920;-75
2021/08/20 00:45:40;;;;;;;;;;;;;;;23.73;40.98;99540.78;5055404;28;20307;-75
2021/08/20 00:48:07;;;;;;;;;;;;;;;23.75;41.00;99538.72;5055649;28;20284;-76
2021/08/20 00:50:32;;;;;;;;;;;;;;;23.75;41.29;99541.44;5054972;28;19973;-75
2021/08/20 00:52:59;;;;;;;;;;;;;;;23.75;41.32;99550.47;5055484;28;19920;-76
2021/08/20 00:55:27;;;;;;;;;;;;;;;23.72;41.27;99550.88;5072781;28;20408;-75
2021/08/20 00:57:54;;;;;;;;;;;;;;;23.69;41.46;99551.28;5071728;28;19920;-76
2021/08/20 01:00:20;;;;;;;;;;;;;;;23.74;41.48;99551.53;5073109;28;20443;-76
2021/08/20 01:02:46;;;;;;;;;;;;;;;23.73;41.43;99547.13;5071679;28;20428;-76
2021/08/20 01:05:12;;;;;;;;;;;;;;;23.73;41.29;99557.16;5054993;28;19931;-75
2021/08/20 01:07:38;;;;;;;;;;;;;;;23.71;41.31;99553.81;5038528;28;19920;-76
2021/08/20 01:10:05;;;;;;;;;;;;;;;23.68;41.40;99559.69;5072030;28;19920;-76
2021/08/20 01:12:30;;;;;;;;;;;;;;;23.63;41.40;99559.41;5055167;28;19927;-77
2021/08/20 01:14:57;;;;;;;;;;;;;;;23.58;41.41;99562.72;5054843;28;20363;-76
2021/08/20 01:17:23;;;;;;;;;;;;;;;23.57;41.59;99571.13;5055394;28;20025;-76
2021/08/20 01:19:52;;;;;;;;;;;;;;;23.55;42.01;99560.44;5071679;28;19925;-75
2021/08/20 01:22:19;;;;;;;;;;;;;;;23.51;41.69;99567.34;5071691;28;19935;-76
2021/08/20 01:24:45;;;;;;;;;;;;;;;23.49;41.73;99569.41;5055384;28;19920;-76
2021/08/20 01:27:12;;;;;;;;;;;;;;;23.47;41.90;99568.78;5038887;28;19924;-75
2021/08/20 01:29:38;;;;;;;;;;;;;;;23.48;41.77;99567.72;5071711;28;19920;-75
2021/08/20 01:32:04;;;;;;;;;;;;;;;23.46;41.86;99572.53;5054978;28;20428;-76
2021/08/20 01:34:30;;;;;;;;;;;;;;;23.46;41.70;99570.63;5071317;28;19943;-75
2021/08/20 01:36:56;;;;;;;;;;;;;;;23.47;42.08;99574.25;5071486;28;20383;-76
2021/08/20 01:39:21;;;;;;;;;;;;;;;23.49;42.24;99583.88;5054862;28;19931;-75
2021/08/20 01:41:47;;;;;;;;;;;;;;;23.49;42.08;99577.59;5071242;28;19924;-75
2021/08/20 01:44:16;;;;;;;;;;;;;;;23.51;41.87;99584.53;5055174;28;19920;-76
2021/08/20 01:46:42;;;;;;;;;;;;;;;23.52;41.71;99590.84;5056303;28;19931;-76
2021/08/20 01:49:09;;;;;;;;;;;;;;;23.54;41.69;99583.28;5058348;28;20019;-76
2021/08/20 01:51:37;;;;;;;;;;;;;;;23.54;41.72;99585.16;5075213;28;19981;-76
2021/08/20 01:54:03;;;;;;;;;;;;;;;23.57;41.62;99592.97;5091927;28;20015;-76
2021/08/20 01:56:33;;;;;;;;;;;;;;;23.59;41.62;99588.16;5058282;28;20387;-77
2021/08/20 01:59:05;;;;;;;;;;;;;;;23.60;41.44;99595.28;5059248;28;19924;-76
2021/08/20 02:01:31;;;;;;;;;;;;;;;23.60;41.36;99592.56;5074767;28;20024;-76
2021/08/20 02:03:57;;;;;;;;;;;;;;;23.62;41.09;99590.47;5057908;28;19921;-76
2021/08/20 02:06:23;;;;;;;;;;;;;;;23.64;40.82;99591.13;5058305;28;19920;-76
2021/08/20 02:08:49;;;;;;;;;;;;;;;23.63;40.54;99600.34;5074737;28;19968;-76
2021/08/20 02:11:16;;;;;;;;;;;;;;;23.63;40.31;99595.72;5057888;28;19970;-75
2021/08/20 02:13:51;;;;;;;;;;;;;;;23.63;39.81;99603.09;5074450;28;19920;-74
2021/08/20 02:16:19;;;;;;;;;;;;;;;23.64;39.42;99604.75;5074535;28;19921;-74
2021/08/20 02:18:45;;;;;;;;;;;;;;;23.61;39.05;99607.88;5074249;28;20345;-76
2021/08/20 02:21:11;;;;;;;;;;;;;;;23.51;39.10;99603.66;5057280;28;19942;-76
2021/08/20 02:23:38;;;;;;;;;;;;;;;23.55;39.09;99605.97;5073968;28;19970;-75
2021/08/20 02:26:07;;;;;;;;;;;;;;;23.59;38.89;99610.00;5075846;28;19923;-74
2021/08/20 02:28:33;;;;;;;;;;;;;;;23.60;38.96;99611.66;5057445;28;19973;-74
2021/08/20 02:30:59;;;;;;;;;;;;;;;23.67;38.82;99607.13;5058560;28;19920;-76
2021/08/20 02:33:25;;;;;;;;;;;;;;;23.70;38.72;99617.66;5042113;28;19920;-75
2021/08/20 02:35:53;;;;;;;;;;;;;;;23.74;38.81;99618.94;5084223;28;20407;-76
2021/08/20 02:38:18;;;;;;;;;;;;;;;23.76;38.80;99616.81;5041158;28;19922;-76
2021/08/20 02:40:44;;;;;;;;;;;;;;;23.81;38.78;99614.34;5058297;28;19921;-75
2021/08/20 02:43:11;;;;;;;;;;;;;;;23.86;38.88;99611.84;5043709;28;20010;-80
2021/08/20 02:45:38;;;;;;;;;;;;;;;23.92;38.65;99626.56;5060071;28;19921;-76
2021/08/20 02:48:04;;;;;;;;;;;;;;;23.94;38.38;99617.13;5040761;28;20010;-76
2021/08/20 02:50:32;;;;;;;;;;;;;;;23.96;38.45;99614.22;5083088;28;19934;-77
2021/08/20 02:52:58;;;;;;;;;;;;;;;24.02;38.48;99620.72;5048476;28;20483;-77
2021/08/20 02:55:29;;;;;;;;;;;;;;;24.07;38.22;99620.97;5055670;28;19920;-76
2021/08/20 02:57:55;;;;;;;;;;;;;;;24.15;38.13;99620.81;5070460;28;19920;-75
2021/08/20 03:00:26;;;;;;;;;;;;;;;24.17;37.97;99616.81;5067798;28;19974;-77
2021/08/20 03:02:57;;;;;;;;;;;;;;;24.23;37.93;99618.72;5051546;28;20391;-75
2021/08/20 03:05:24;;;;;;;;;;;;;;;24.29;37.43;99627.16;5084473;28;20059;-77
2021/08/20 03:08:00;;;;;;;;;;;;;;;24.34;37.46;99620.03;5054330;28;20476;-78
2021/08/20 03:10:30;;;;;;;;;;;;;;;24.39;37.40;99628.47;5044428;28;19920;-77
2021/08/20 03:12:57;;;;;;;;;;;;;;;24.47;37.47;99630.19;5060118;28;19927;-76
2021/08/20 03:15:23;;;;;;;;;;;;;;;24.55;37.28;99620.94;5058011;28;20007;-77
2021/08/20 03:17:49;;;;;;;;;;;;;;;24.63;37.28;99618.84;5056979;28;20058;-77
2021/08/20 03:20:18;;;;;;;;;;;;;;;24.74;37.02;99620.13;5073344;28;19985;-76
2021/08/20 03:22:57;;;;;;;;;;;;;;;24.81;36.54;99615.53;5173177;27;19991;-76
2021/08/20 03:25:36;;;;;;;;;;;;;;;24.89;36.45;99618.06;5173652;27;20284;-77
2021/08/20 03:28:19;;;;;;;;;;;;;;;24.98;36.33;99618.72;5173333;27;20316;-78
2021/08/20 03:31:06;;;;;;;;;;;;;;;25.06;36.29;99618.50;5090932;27;19916;-77
2021/08/20 03:33:47;;;;;;;;;;;;;;;25.13;35.99;99624.00;5123576;27;19925;-76
2021/08/20 03:36:30;;;;;;;;;;;;;;;25.23;35.90;99624.41;5173390;27;19960;-77
2021/08/20 03:39:16;;;;;;;;;;;;;;;25.35;35.64;99624.59;5090969;28;19985;-75
2021/08/20 03:41:54;;;;;;;;;;;;;;;25.49;35.44;99620.81;5072326;28;19921;-81
2021/08/20 03:44:33;;;;;;;;;;;;;;;25.62;35.38;99619.97;5091519;28;19967;-75
2021/08/20 03:47:12;;;;;;;;;;;;;;;25.75;35.15;99613.59;5090744;28;19966;-76
2021/08/20 03:49:51;;;;;;;;;;;;;;;25.87;34.99;99620.97;5090493;27;19920;-77
2021/08/20 03:52:31;;;;;;;;;;;;;;;25.91;34.61;99616.75;5074300;27;19929;-75
2021/08/20 03:55:12;;;;;;;;;;;;;;;25.98;34.71;99616.72;5143950;27;19924;-75
2021/08/20 03:58:06;;;;;;;;;;;;;;;26.10;34.48;99620.47;5173194;27;19919;-76
2021/08/20 04:00:52;;;;;;;;;;;;;;;26.26;34.33;99621.06;5110482;27;19920;-77
2021/08/20 04:03:32;;;;;;;;;;;;;;;26.40;34.15;99618.03;5173359;27;19964;-76
2021/08/20 04:06:12;;;;;;;;;;;;;;;26.51;34.06;99616.50;5090764;27;19965;-76
2021/08/20 04:08:48;;;;;;;;;;;;;;;26.68;33.89;99616.00;5080361;27;2200318;-76
2021/08/20 04:11:49;;;;;;;;;;;;;;;26.87;33.40;99617.75;5090629;27;19916;-76
2021/08/20 04:14:41;;;;;;;;;;;;;;;27.01;33.33;99626.75;5122893;27;19966;-77
2021/08/20 04:17:20;;;;;;;;;;;;;;;27.15;33.17;99622.84;5103178;27;19921;-76
2021/08/20 04:19:56;;;;;;;;;;;;;;;27.31;33.06;99625.03;5056564;27;2146896;-77
2021/08/20 04:22:36;;;;;;;;;;;;;;;27.48;32.81;99624.44;5173355;27;19919;-78
2021/08/20 04:25:14;;;;;;;;;;;;;;;27.62;32.70;99620.50;5090630;27;19920;-78
2021/08/20 04:28:12;;;;;;;;;;;;;;;27.79;32.41;99624.34;5091016;27;19916;-79
2021/08/20 04:30:59;;;;;;;;;;;;;;;27.93;32.10;99616.81;5151784;27;19966;-78
2021/08/20 04:33:57;;;;;;;;;;;;;;;28.10;31.79;99630.78;5090782;27;19916;-77
2021/08/20 04:36:54;;;;;;;;;;;;;;;28.23;31.58;99633.34;5123505;27;19968;-78
2021/08/20 04:40:00;;;;;;;;;;;;;;;28.39;31.45;99628.31;5091759;27;19920;-79
2021/08/20 04:43:05;;;;;;;;;;;;;;;28.55;31.28;99634.03;5110722;27;19923;-78
2021/08/20 04:46:01;;;;;;;;;;;;;;;28.69;31.05;99623.66;5110920;27;20448;-77
2021/08/20 04:48:57;;;;;;;;;;;;;;;28.87;30.88;99625.50;5193979;27;19923;-79
2021/08/20 04:52:14;;;;;;;;;;;;;;;29.09;30.33;99628.59;5070469;28;19966;-78
2021/08/20 04:55:19;;;;;;;;;;;;;;;29.25;30.41;99627.88;5131168;27;20347;-77
2021/08/20 04:57:57;;;;;;;;;;;;;;;29.40;30.30;99629.34;5173502;27;19923;-77
2021/08/20 05:00:51;;;;;;;;;;;;;;;29.52;29.87;99627.41;5111206;27;20236;-78
2021/08/20 05:03:49;;;;;;;;;;;;;;;29.66;29.79;99628.88;5111606;27;20425;-78
2021/08/20 05:06:43;;;;;;;;;;;;;;;29.83;29.70;99630.91;5096765;27;19930;-79
2021/08/20 05:09:37;;;;;;;;;;;;;;;29.93;29.50;99622.84;5111807;27;19927;-78
2021/08/20 05:12:13;;;;;;;;;;;;;;;30.08;29.30;99625.94;4110651;27;29801773;-78
2021/08/20 05:15:06;;;;;;;;;;;;;;;30.22;29.02;99630.13;5111706;27;20058;-79
2021/08/20 05:18:02;;;;;;;;;;;;;;;30.36;28.63;99625.19;5152104;27;19922;-78
2021/08/20 05:20:59;;;;;;;;;;;;;;;30.51;28.61;99630.16;5151820;27;20424;-78
2021/08/20 05:23:58;;;;;;;;;;;;;;;30.70;28.32;99628.88;5026410;27;20433;-78
2021/08/20 05:26:50;;;;;;;;;;;;;;;30.89;28.25;99632.28;5111322;27;19916;-78
2021/08/20 05:29:43;;;;;;;;;;;;;;;31.06;27.64;99626.75;5110486;27;19923;-77
2021/08/20 05:32:22;;;;;;;;;;;;;;;31.17;26.88;99634.13;5102268;27;19921;-78
2021/08/20 05:35:00;;;;;;;;;;;;;;;31.26;26.93;99628.22;5161181;27;19929;-76
2021/08/20 05:37:39;;;;;;;;;;;;;;;31.36;26.73;99628.38;5131400;27;19923;-78
2021/08/20 05:40:17;;;;;;;;;;;;;;;31.40;25.53;99624.03;5172822;27;19971;-77
2021/08/20 05:42:55;;;;;;;;;;;;;;;31.47;25.84;99621.94;5090030;27;19920;-77
2021/08/20 05:45:37;;;;;;;;;;;;;;;31.49;25.92;99625.28;5078844;27;19974;-78
2021/08/20 05:48:16;;;;;;;;;;;;;;;31.63;25.84;99626.63;5110884;27;19966;-78
2021/08/20 05:50:55;;;;;;;;;;;;;;;31.76;25.94;99619.06;5172700;27;20278;-80
2021/08/20 05:53:34;;;;;;;;;;;;;;;31.86;26.20;99624.75;5090520;27;19921;-77
2021/08/20 05:56:23;;;;;;;;;;;;;;;31.82;25.84;99618.00;5151597;27;19958;-78
2021/08/20 05:59:07;;;;;;;;;;;;;;;31.96;25.61;99624.88;5151351;27;19919;-77
2021/08/20 06:01:45;;;;;;;;;;;;;;;32.15;25.33;99622.63;5090732;27;19998;-78
2021/08/20 06:04:26;;;;;;;;;;;;;;;32.28;25.18;99629.72;5090594;27;19920;-78
2021/08/20 06:07:07;;;;;;;;;;;;;;;32.48;24.92;99627.22;5130146;27;19965;-79
2021/08/20 06:09:47;;;;;;;;;;;;;;;32.66;25.11;99627.97;5131098;27;19946;-77
2021/08/20 06:12:27;;;;;;;;;;;;;;;32.88;24.82;99621.25;5143662;27;19965;-78
2021/08/20 06:15:09;;;;;;;;;;;;;;;33.08;24.74;99615.09;5131517;27;20340;-79
2021/08/20 06:18:32;;;;;;;;;;;;;;;33.35;24.19;99619.75;5110906;27;19973;-78
2021/08/20 06:21:10;;;;;;;;;;;;;;;33.52;23.78;99617.69;5168231;27;19929;-77
2021/08/20 06:23:49;;;;;;;;;;;;;;;33.65;23.58;99613.59;5090714;27;19925;-78
2021/08/20 06:26:31;;;;;;;;;;;;;;;33.85;23.65;99615.66;5151464;27;20020;-77
2021/08/20 06:29:11;;;;;;;;;;;;;;;34.04;23.54;99611.34;5111032;27;19928;-78
2021/08/20 06:31:49;;;;;;;;;;;;;;;34.19;22.94;99613.34;5103425;27;19917;-77
2021/08/20 06:34:30;;;;;;;;;;;;;;;34.33;22.75;99614.50;5166471;27;19923;-77
2021/08/20 06:37:09;;;;;;;;;;;;;;;34.44;22.52;99620.91;5173576;27;19975;-78
2021/08/20 06:39:48;;;;;;;;;;;;;;;34.54;22.58;99620.16;5088685;27;19928;-78
2021/08/20 06:42:27;;;;;;;;;;;;;;;34.61;21.87;99612.41;5089666;27;19966;-77
2021/08/20 06:45:08;;;;;;;;;;;;;;;34.76;22.10;99606.03;5171514;27;20312;-78
2021/08/20 06:47:50;;;;;;;;;;;;;;;34.82;21.49;99618.81;5173488;27;20354;-78
2021/08/20 06:50:31;;;;;;;;;;;;;;;34.90;21.17;99618.25;5090915;27;19917;-77
2021/08/20 06:53:09;;;;;;;;;;;;;;;35.14;21.84;99618.59;5090349;27;19920;-78
2021/08/20 06:55:48;;;;;;;;;;;;;;;35.35;21.66;99613.84;5091188;27;19920;-78
2021/08/20 06:58:27;;;;;;;;;;;;;;;35.45;21.33;99613.84;5071463;27;19994;-78
2021/08/20 07:01:07;;;;;;;;;;;;;;;35.59;20.84;99613.31;5090628;27;19978;-77
2021/08/20 07:03:45;;;;;;;;;;;;;;;35.48;21.08;99612.44;5090894;27;19973;-78
2021/08/20 07:06:24;;;;;;;;;;;;;;;35.66;20.88;99608.28;5173808;27;20296;-78
2021/08/20 07:09:02;;;;;;;;;;;;;;;35.94;20.64;99610.41;5091047;27;19966;-77
2021/08/20 07:11:40;;;;;;;;;;;;;;;36.10;20.79;99607.59;5091041;27;19966;-77
2021/08/20 07:14:18;;;;;;;;;;;;;;;36.10;20.24;99605.63;5173263;27;19918;-76
2021/08/20 07:16:56;;;;;;;;;;;;;;;36.16;20.66;99604.50;5090949;27;20298;-78
2021/08/20 07:19:35;;;;;;;;;;;;;;;36.21;20.29;99603.66;5173098;27;19964;-76
2021/08/20 07:22:13;;;;;;;;;;;;;;;36.38;20.55;99609.69;5090830;27;19920;-77
2021/08/20 07:24:51;;;;;;;;;;;;;;;36.53;20.27;99607.97;5090930;27;19928;-76
2021/08/20 07:27:30;;;;;;;;;;;;;;;36.81;20.23;99606.38;5143995;27;20378;-77
2021/08/20 07:30:11;;;;;;;;;;;;;;;37.03;19.75;99598.44;5173176;27;19922;-77
2021/08/20 07:32:49;;;;;;;;;;;;;;;37.08;19.77;99606.75;5173437;27;20330;-77
2021/08/20 07:35:27;;;;;;;;;;;;;;;36.92;19.45;99608.81;5111021;27;19923;-77
2021/08/20 07:38:05;;;;;;;;;;;;;;;36.95;19.55;99607.44;5090887;28;19974;-76
2021/08/20 07:40:43;;;;;;;;;;;;;;;37.23;19.57;99597.44;5011096;28;19976;-77
2021/08/20 07:43:22;;;;;;;;;;;;;;;37.46;19.29;99608.94;5090888;28;19924;-76
2021/08/20 07:46:00;;;;;;;;;;;;;;;37.43;19.04;99605.66;5173311;27;20327;-77
2021/08/20 07:48:41;;;;;;;;;;;;;;;36.67;19.03;99604.28;5111142;27;19970;-76
2021/08/20 07:51:20;;;;;;;;;;;;;;;36.46;19.43;99605.47;5090443;27;19974;-77
2021/08/20 07:53:58;;;;;;;;;;;;;;;36.69;19.08;99609.53;5090532;27;19920;-77
2021/08/20 07:56:37;;;;;;;;;;;;;;;36.89;19.15;99598.22;5172999;27;19957;-76
2021/08/20 07:59:17;;;;;;;;;;;;;;;37.29;19.18;99595.44;5090564;27;19920;-76
2021/08/20 08:01:58;;;;;;;;;;;;;;;37.69;18.96;99594.22;5103218;27;20428;-77
2021/08/20 08:04:50;;;;;;;;;;;;;;;37.93;18.65;99604.59;5090613;28;20334;-76
2021/08/20 08:07:47;;;;;;;;;;;;;;;38.20;18.60;99599.19;5106041;27;19932;-77
2021/08/20 08:10:48;;;;;;;;;;;;;;;38.34;17.91;99588.16;5030367;27;19941;-77
2021/08/20 08:13:45;;;;;;;;;;;;;;;38.45;17.87;99588.84;5112092;27;19922;-78
2021/08/20 08:16:37;;;;;;;;;;;;;;;38.45;17.03;99591.66;5111959;27;20299;-76
2021/08/20 08:19:29;;;;;;;;;;;;;;;38.59;17.13;99589.72;5112656;27;19920;-77
2021/08/20 08:22:26;;;;;;;;;;;;;;;38.45;17.30;99586.88;5152147;27;19993;-76
2021/08/20 08:25:19;;;;;;;;;;;;;;;38.31;17.88;99588.72;5098176;27;20303;-79
2021/08/20 08:28:16;;;;;;;;;;;;;;;38.00;17.66;99583.56;5152421;27;19967;-75
2021/08/20 08:31:19;;;;;;;;;;;;;;;38.12;17.29;99577.53;5152236;27;19927;-76
2021/08/20 08:34:15;;;;;;;;;;;;;;;38.42;17.01;99583.88;5168398;27;20011;-76
2021/08/20 08:37:07;;;;;;;;;;;;;;;38.85;16.94;99590.19;5103072;27;20305;-78
2021/08/20 08:40:19;;;;;;;;;;;;;;;38.93;15.83;99589.53;5088518;28;19981;-77
2021/08/20 08:43:10;;;;;;;;;;;;;;;39.46;16.68;99593.97;5111224;27;19927;-75
2021/08/20 08:46:04;;;;;;;;;;;;;;;39.57;15.20;99587.03;5111298;27;20068;-76
2021/08/20 08:48:43;;;;;;;;;;;;;;;39.27;14.91;99578.06;5082673;27;19929;-75
2021/08/20 08:51:20;;;;;;;;;;;;;;;39.46;15.23;99586.41;5093319;27;2269574;-75
2021/08/20 08:53:58;;;;;;;;;;;;;;;39.54;15.20;99584.84;5090868;27;19920;-74
2021/08/20 08:56:37;;;;;;;;;;;;;;;39.54;14.58;99587.66;5090973;27;20559;-75
2021/08/20 08:59:21;;;;;;;;;;;;;;;39.61;14.46;99582.47;5104209;28;20390;-76
2021/08/20 09:01:57;;;;;;;;;;;;;;;39.46;14.56;99579.97;5096850;27;2162799;-75
2021/08/20 09:04:37;;;;;;;;;;;;;;;39.77;14.95;99578.25;5090702;27;19970;-75
2021/08/20 09:07:16;;;;;;;;;;;;;;;40.30;14.59;99579.69;5090226;27;19924;-76
2021/08/20 09:10:14;;;;;;;;;;;;;;;40.51;14.35;99583.69;5089888;27;19985;-76
2021/08/20 09:12:57;;;;;;;;;;;;;;;40.83;14.05;99578.19;5089746;27;19990;-75
2021/08/20 09:15:37;;;;;;;;;;;;;;;40.79;14.52;99583.63;5110835;27;20336;-75
2021/08/20 09:18:20;;;;;;;;;;;;;;;40.94;13.66;99577.63;5008795;27;2256375;-75
2021/08/20 09:20:59;;;;;;;;;;;;;;;41.09;13.74;99576.44;5090584;27;19962;-73
2021/08/20 09:23:37;;;;;;;;;;;;;;;40.96;13.56;99577.28;5090818;27;19974;-73
2021/08/20 09:26:22;;;;;;;;;;;;;;;40.78;13.02;99581.97;5090654;28;19974;-74
2021/08/20 09:29:10;;;;;;;;;;;;;;;40.65;13.39;99577.22;5090888;27;19962;-74
2021/08/20 09:31:51;;;;;;;;;;;;;;;41.00;12.96;99578.38;5102771;27;19917;-74
2021/08/20 09:34:29;;;;;;;;;;;;;;;40.71;11.80;99578.78;5166885;27;19927;-74
2021/08/20 09:37:16;;;;;;;;;;;;;;;40.99;11.60;99573.88;5090706;27;19973;-75
2021/08/20 09:40:03;;;;;;;;;;;;;;;40.95;11.51;99570.03;5173319;27;20335;-74
2021/08/20 09:42:41;;;;;;;;;;;;;;;40.69;11.69;99575.44;5173268;27;19919;-75
2021/08/20 09:45:20;;;;;;;;;;;;;;;40.68;11.39;99571.81;5071098;27;19966;-76
2021/08/20 09:48:00;;;;;;;;;;;;;;;40.50;11.51;99569.97;5171975;27;19963;-76
2021/08/20 09:50:42;;;;;;;;;;;;;;;40.70;11.85;99580.75;5101495;27;19924;-74
2021/08/20 09:53:21;;;;;;;;;;;;;;;41.32;12.04;99565.19;5090842;28;20338;-73
2021/08/20 09:56:05;;;;;;;;;;;;;;;41.90;11.86;99567.81;5090918;27;19924;-75
2021/08/20 09:58:43;;;;;;;;;;;;;;;42.28;11.04;99566.41;5172772;27;20238;-74
2021/08/20 10:01:22;;;;;;;;;;;;;;;42.74;10.81;99562.19;5090887;27;19920;-74
2021/08/20 10:04:04;;;;;;;;;;;;;;;43.24;10.93;99568.06;5173508;27;19927;-74
2021/08/20 10:06:44;;;;;;;;;;;;;;;43.55;10.84;99562.19;5091335;27;19973;-74
2021/08/20 10:09:23;;;;;;;;;;;;;;;42.73;11.14;99561.38;5091131;27;19921;-74
2021/08/20 10:12:02;;;;;;;;;;;;;;;42.81;11.16;99557.72;5090419;27;19924;-75
2021/08/20 10:14:41;;;;;;;;;;;;;;;43.06;11.40;99558.81;5122429;27;19920;-74
2021/08/20 10:17:06;;;;;;;;;;;;;;;42.80;11.56;99563.66;5076117;28;20398;-74
2021/08/20 10:19:32;;;;;;;;;;;;;;;43.03;11.98;99565.13;5099400;28;19924;-74
2021/08/20 10:21:59;;;;;;;;;;;;;;;43.68;11.55;99567.97;5098349;28;19928;-73
2021/08/20 10:24:25;;;;;;;;;;;;;;;44.15;11.29;99565.88;5056532;28;20337;-74
2021/08/20 10:26:52;;;;;;;;;;;;;;;44.33;10.66;99561.81;5072444;28;20023;-75
2021/08/20 10:29:41;;;;;;;;;;;;;;;44.53;10.75;99565.78;5089790;28;19962;-74
2021/08/20 10:32:08;;;;;;;;;;;;;;;44.63;10.20;99561.75;5067319;28;19925;-75
2021/08/20 10:34:34;;;;;;;;;;;;;;;44.17;10.73;99559.91;5066074;28;20559;-75
2021/08/20 10:37:04;;;;;;;;;;;;;;;43.90;10.56;99559.25;5052264;28;20337;-75
2021/08/20 10:39:31;;;;;;;;;;;;;;;43.71;10.69;99562.47;5070198;28;19959;-74
2021/08/20 10:42:09;;;;;;;;;;;;;;;44.39;10.70;99542.72;5054696;28;19955;-75
2021/08/20 10:44:51;;;;;;;;;;;;;;;45.12;9.84;99552.69;5091788;27;19921;-75
2021/08/20 10:47:30;;;;;;;;;;;;;;;45.47;10.18;99548.31;5091214;27;19990;-75
2021/08/20 10:50:18;;;;;;;;;;;;;;;45.59;9.92;99549.50;5092664;27;2324936;-73
2021/08/20 10:52:58;;;;;;;;;;;;;;;45.84;10.09;99545.53;5092089;28;19961;-75
2021/08/20 10:55:37;;;;;;;;;;;;;;;46.21;9.88;99549.16;5131744;27;19929;-74
2021/08/20 10:58:16;;;;;;;;;;;;;;;45.70;10.07;99539.38;5129864;27;19932;-76
2021/08/20 11:00:58;;;;;;;;;;;;;;;45.91;9.94;99540.13;5152789;27;20027;-77
2021/08/20 11:03:40;;;;;;;;;;;;;;;46.14;9.85;99542.44;5167053;27;19944;-77
2021/08/20 11:06:47;;;;;;;;;;;;;;;46.81;9.88;99535.22;5103824;27;20322;-75
2021/08/20 11:09:26;;;;;;;;;;;;;;;46.96;9.32;99534.44;5091065;27;19966;-79
2021/08/20 11:12:05;;;;;;;;;;;;;;;46.18;9.45;99537.72;5186004;27;20377;-76
2021/08/20 11:14:45;;;;;;;;;;;;;;;44.68;10.13;99543.81;5091891;28;20326;-79
2021/08/20 11:17:43;;;;;;;;;;;;;;;44.57;10.27;99532.94;5173374;27;19919;-75
2021/08/20 11:20:23;;;;;;;;;;;;;;;45.31;10.03;99536.03;5070650;28;19921;-74
2021/08/20 11:23:08;;;;;;;;;;;;;;;46.03;9.28;99531.63;5084014;28;20006;-76
2021/08/20 11:25:50;;;;;;;;;;;;;;;46.64;9.33;99527.03;5173176;27;19923;-73
2021/08/20 11:28:40;;;;;;;;;;;;;;;47.39;8.56;99535.59;5143691;27;19920;-73
2021/08/20 11:31:19;;;;;;;;;;;;;;;47.17;8.25;99533.38;5111126;27;20371;-76
2021/08/20 11:33:46;;;;;;;;;;;;;;;46.80;8.81;99538.41;5126541;28;19977;-75
2021/08/20 11:36:13;;;;;;;;;;;;;;;47.31;8.62;99530.91;5092517;28;19977;-76
2021/08/20 11:38:42;;;;;;;;;;;;;;;47.86;8.16;99533.97;5109448;28;19928;-76
2021/08/20 11:41:12;;;;;;;;;;;;;;;48.02;8.37;99540.41;5075474;28;20448;-76
2021/08/20 11:43:44;;;;;;;;;;;;;;;48.55;7.79;99545.69;5092644;28;19924;-78
2021/08/20 11:46:10;;;;;;;;;;;;;;;48.62;7.64;99535.31;5109477;28;19928;-75
2021/08/20 11:48:40;;;;;;;;;;;;;;;48.15;7.61;99538.31;5110473;28;19931;-75
2021/08/20 11:51:06;;;;;;;;;;;;;;;47.16;7.91;99538.22;5092893;28;19975;-76
2021/08/20 11:53:32;;;;;;;;;;;;;;;46.77;8.23;99531.47;5092072;28;19924;-75
2021/08/20 11:56:08;;;;;;;;;;;;;;;46.31;8.47;99525.25;5092287;28;19928;-76
2021/08/20 11:58:34;;;;;;;;;;;;;;;46.68;8.60;99533.59;5092556;28;19924;-73
2021/08/20 12:01:00;;;;;;;;;;;;;;;46.03;8.28;99530.78;5075283;28;19928;-76
2021/08/20 12:03:26;;;;;;;;;;;;;;;46.14;8.44;99531.13;5075210;28;19931;-77
2021/08/20 12:06:06;;;;;;;;;;;;;;;47.00;8.05;99528.06;5075484;28;19959;-75
2021/08/20 12:08:32;;;;;;;;;;;;;;;47.85;7.91;99533.16;5056783;28;19924;-76
2021/08/20 12:10:58;;;;;;;;;;;;;;;48.73;7.69;99537.56;5047699;28;19930;-75
2021/08/20 12:13:24;;;;;;;;;;;;;;;49.35;7.39;99533.53;5071856;28;19924;-76
2021/08/20 12:15:50;;;;;;;;;;;;;;;49.65;7.38;99535.66;5089499;28;19938;-74
2021/08/20 12:18:23;;;;;;;;;;;;;;;49.70;7.52;99537.38;5096165;28;19924;-75
2021/08/20 12:20:49;;;;;;;;;;;;;;;49.89;7.26;99533.63;5096847;28;19931;-75
2021/08/20 12:23:15;;;;;;;;;;;;;;;50.18;6.84;99529.16;5077762;28;19939;-74
2021/08/20 12:25:41;;;;;;;;;;;;;;;50.38;7.04;99533.53;5071618;28;19924;-75
2021/08/20 12:28:11;;;;;;;;;;;;;;;50.69;6.90;99526.63;5064073;28;19934;-75
2021/08/20 12:30:37;;;;;;;;;;;;;;;50.84;7.10;99533.31;5055714;28;19928;-75
2021/08/20 12:33:03;;;;;;;;;;;;;;;50.84;6.69;99526.78;5092893;28;20381;-75
2021/08/20 12:35:30;;;;;;;;;;;;;;;50.90;7.14;99525.28;5070021;28;19924;-75
2021/08/20 12:38:02;;;;;;;;;;;;;;;51.10;6.94;99531.56;5094083;28;19924;-75
2021/08/20 12:40:37;;;;;;;;;;;;;;;49.53;7.28;99522.47;5070139;28;20041;-75
2021/08/20 12:43:03;;;;;;;;;;;;;;;48.27;8.14;99521.19;5057670;28;19964;-75
2021/08/20 12:45:28;;;;;;;;;;;;;;;48.35;8.32;99520.13;5057821;28;19960;-76
2021/08/20 12:48:00;;;;;;;;;;;;;;;49.23;8.00;99519.50;5057539;28;20302;-75
2021/08/20 12:50:26;;;;;;;;;;;;;;;49.69;7.76;99525.19;5057282;28;19924;-75
2021/08/20 12:52:59;;;;;;;;;;;;;;;49.82;7.48;99518.06;5074150;28;19950;-75
2021/08/20 12:55:25;;;;;;;;;;;;;;;50.18;7.66;99518.63;5074174;28;19924;-75
2021/08/20 12:57:52;;;;;;;;;;;;;;;49.77;7.20;99520.44;5040713;28;19966;-75
2021/08/20 13:00:18;;;;;;;;;;;;;;;49.73;7.40;99519.53;5049828;28;19964;-75
2021/08/20 13:02:43;;;;;;;;;;;;;;;49.70;7.45;99521.13;5063537;28;19967;-76
2021/08/20 13:05:09;;;;;;;;;;;;;;;50.14;7.29;99516.91;5063333;28;20336;-75
2021/08/20 13:07:35;;;;;;;;;;;;;;;50.49;7.46;99513.78;5069493;28;19928;-75
2021/08/20 13:10:01;;;;;;;;;;;;;;;50.62;7.43;99517.19;5065277;28;19924;-75
2021/08/20 13:12:27;;;;;;;;;;;;;;;50.60;7.02;99511.09;5062073;28;19963;-75
2021/08/20 13:14:55;;;;;;;;;;;;;;;50.65;7.04;99520.06;5063095;28;19923;-76
2021/08/20 13:17:21;;;;;;;;;;;;;;;50.74;6.95;99517.75;5077431;28;19924;-74
2021/08/20 13:19:47;;;;;;;;;;;;;;;50.77;7.10;99514.13;5095286;28;19924;-76
2021/08/20 13:22:13;;;;;;;;;;;;;;;50.75;6.97;99518.56;5060341;28;20435;-76
2021/08/20 13:24:39;;;;;;;;;;;;;;;50.65;6.95;99514.38;5093985;28;19931;-75
2021/08/20 13:27:08;;;;;;;;;;;;;;;50.49;6.86;99522.31;5095266;28;19931;-74
2021/08/20 13:29:34;;;;;;;;;;;;;;;50.33;7.11;99522.50;5076621;28;19928;-76
2021/08/20 13:32:00;;;;;;;;;;;;;;;50.12;7.07;99525.84;5060712;28;19928;-76
2021/08/20 13:34:25;;;;;;;;;;;;;;;49.97;6.80;99524.00;5043784;28;19986;-74
2021/08/20 13:36:52;;;;;;;;;;;;;;;49.98;7.39;99523.59;5060493;28;19933;-73